createdAt,value
2022-10-07T03:49:42.308Z,53.54
2022-10-07T03:52:08.786Z,54.62
2022-10-07T03:54:35.331Z,55.19
2022-10-07T03:57:01.960Z,55.48
2022-10-07T03:59:28.495Z,55.33
2022-10-07T04:01:55.046Z,55.39
2022-10-07T04:04:21.550Z,55.73
2022-10-07T04:06:48.020Z,55.34
2022-10-07T04:09:14.684Z,55.77
2022-10-07T04:11:41.802Z,55.87
2022-10-07T04:14:08.567Z,55.91
2022-10-07T04:16:38.091Z,51.71
2022-10-07T04:19:06.005Z,62.43
2022-10-07T04:21:33.605Z,65.16
2022-10-07T04:24:00.290Z,66.83
2022-10-07T04:26:26.805Z,60.43
2022-10-07T04:28:53.433Z,66.96
2022-10-07T04:31:20.158Z,66.71
2022-10-07T04:33:46.634Z,59.58
2022-10-07T04:36:13.377Z,60.50
2022-10-07T04:38:39.935Z,56.92
2022-10-07T04:41:07.472Z,56.96
2022-10-07T04:43:34.754Z,58.92
2022-10-07T04:46:02.793Z,60.59
2022-10-07T04:48:29.826Z,59.92
2022-10-07T04:51:01.550Z,58.84
2022-10-07T04:53:28.271Z,56.99
2022-10-07T04:55:54.821Z,54.19
2022-10-07T04:58:21.410Z,57.44
2022-10-07T05:00:49.215Z,53.75
2022-10-07T05:03:17.667Z,55.78
2022-10-07T05:05:46.625Z,56.34
2022-10-07T05:08:14.837Z,54.77
2022-10-07T05:10:42.398Z,55.58
2022-10-07T05:13:14.252Z,55.09
2022-10-07T05:15:58.649Z,53.75
2022-10-07T05:18:27.182Z,54.32
2022-10-07T05:20:54.582Z,50.10
2022-10-07T05:23:27.890Z,48.22
2022-10-07T05:26:05.033Z,48.56
2022-10-07T05:28:31.889Z,47.26
2022-10-07T05:31:16.871Z,47.85
2022-10-07T05:33:44.137Z,47.35
2022-10-07T05:36:12.219Z,47.47
2022-10-07T05:38:38.985Z,47.73
2022-10-07T05:41:07.217Z,47.47
2022-10-07T05:43:36.282Z,48.16
2022-10-07T05:46:05.453Z,48.55
2022-10-07T05:48:38.680Z,49.00
2022-10-07T05:51:07.785Z,49.26
2022-10-07T05:53:34.925Z,49.72
2022-10-07T05:56:06.400Z,49.64
2022-10-07T05:58:35.041Z,50.00
2022-10-07T06:01:06.156Z,50.22
2022-10-07T06:03:35.390Z,50.62
2022-10-07T06:06:01.891Z,50.82
2022-10-07T06:08:28.634Z,50.93
2022-10-07T06:11:13.589Z,49.03
2022-10-07T06:13:40.081Z,51.16
2022-10-07T06:16:09.121Z,51.89
2022-10-07T06:18:36.638Z,51.81
2022-10-07T06:21:03.526Z,52.29
2022-10-07T06:23:30.691Z,52.39
2022-10-07T06:26:06.073Z,51.73
2022-10-07T06:28:42.108Z,51.70
2022-10-07T06:31:22.504Z,51.87
2022-10-07T06:33:49.643Z,52.47
2022-10-07T06:36:16.582Z,53.33
2022-10-07T06:38:47.298Z,52.63
2022-10-07T06:41:14.955Z,53.16
2022-10-07T06:43:41.466Z,53.77
2022-10-07T06:46:12.896Z,52.83
2022-10-07T06:48:41.195Z,52.96
2022-10-07T06:51:12.607Z,52.81
2022-10-07T06:53:39.220Z,52.56
2022-10-07T06:56:06.409Z,53.58
2022-10-07T06:58:33.363Z,53.22
2022-10-07T07:00:59.995Z,52.87
2022-10-07T07:03:26.924Z,51.12
2022-10-07T07:05:55.108Z,52.42
2022-10-07T07:08:31.990Z,52.09
2022-10-07T07:11:30.715Z,52.11
2022-10-07T07:13:57.788Z,51.81
2022-10-07T07:16:24.705Z,51.68
2022-10-07T07:18:53.143Z,52.18
2022-10-07T07:21:20.323Z,51.55
2022-10-07T07:23:46.893Z,52.24
2022-10-07T07:26:14.075Z,51.19
2022-10-07T07:28:43.956Z,51.33
2022-10-07T07:31:13.960Z,51.32
2022-10-07T07:33:40.703Z,51.33
2022-10-07T07:36:12.716Z,50.20
2022-10-07T07:38:39.991Z,50.88
2022-10-07T07:41:06.879Z,51.25
2022-10-07T07:43:33.297Z,51.35
2022-10-07T07:45:59.796Z,50.93
2022-10-07T07:48:26.928Z,50.44
2022-10-07T07:50:57.303Z,51.08
2022-10-07T07:53:23.756Z,51.12
2022-10-07T07:55:57.456Z,50.15
2022-10-07T07:58:24.521Z,50.31
2022-10-07T08:01:06.075Z,50.17
2022-10-07T08:03:33.745Z,49.97
2022-10-07T08:06:04.702Z,49.33
2022-10-07T08:08:31.588Z,48.95
2022-10-07T08:11:05.897Z,48.87
2022-10-07T08:13:33.168Z,49.11
2022-10-07T08:15:59.680Z,48.83
2022-10-07T08:18:27.110Z,48.87
2022-10-07T08:20:58.953Z,48.72
2022-10-07T08:23:30.520Z,48.63
2022-10-07T08:25:58.493Z,48.17
2022-10-07T08:28:26.532Z,48.16
2022-10-07T08:30:53.843Z,47.30
2022-10-07T08:33:21.856Z,47.33
2022-10-07T08:35:57.574Z,47.22
2022-10-07T08:38:24.041Z,46.85
2022-10-07T08:40:52.101Z,47.05
2022-10-07T08:43:22.215Z,47.09
2022-10-07T08:45:48.836Z,47.13
2022-10-07T08:48:22.201Z,47.29
2022-10-07T08:51:06.969Z,47.10
2022-10-07T08:53:37.724Z,47.14
2022-10-07T08:56:06.885Z,46.48
2022-10-07T08:58:43.529Z,46.70
2022-10-07T09:01:32.096Z,46.66
2022-10-07T09:04:21.752Z,46.11
2022-10-07T09:06:58.850Z,46.09
2022-10-07T09:09:28.273Z,46.91
2022-10-07T09:11:57.550Z,45.14
2022-10-07T09:14:39.914Z,46.01
2022-10-07T09:17:21.857Z,45.82
2022-10-07T09:19:52.357Z,44.89
2022-10-07T09:22:21.532Z,45.00
2022-10-07T09:24:49.333Z,45.34
2022-10-07T09:27:18.569Z,44.84
2022-10-07T09:29:45.141Z,44.59
2022-10-07T09:32:14.207Z,45.96
2022-10-07T09:34:41.370Z,44.77
2022-10-07T09:37:14.031Z,44.90
2022-10-07T09:39:41.646Z,44.64
2022-10-07T09:42:16.267Z,44.26
2022-10-07T09:44:42.926Z,43.72
2022-10-07T09:47:19.374Z,44.07
2022-10-07T09:49:51.796Z,44.41
2022-10-07T09:52:26.427Z,43.13
2022-10-07T09:54:55.267Z,43.07
2022-10-07T09:57:32.516Z,43.41
2022-10-07T10:00:25.937Z,44.30
2022-10-07T10:03:01.214Z,42.70
2022-10-07T10:05:32.795Z,42.06
2022-10-07T10:08:03.287Z,41.93
2022-10-07T10:10:33.255Z,42.32
2022-10-07T10:13:02.607Z,41.70
2022-10-07T10:15:38.668Z,41.45
2022-10-07T10:18:30.851Z,42.44
2022-10-07T10:21:13.837Z,41.40
2022-10-07T10:23:53.083Z,40.63
2022-10-07T10:26:33.574Z,41.27
2022-10-07T10:29:15.206Z,38.93
2022-10-07T10:32:00.416Z,39.41
2022-10-07T10:34:51.370Z,39.31
2022-10-07T10:37:21.558Z,38.69
2022-10-07T10:40:15.486Z,39.48
2022-10-07T10:43:24.027Z,40.47
2022-10-07T10:46:19.166Z,40.66
2022-10-07T10:48:59.920Z,38.76
2022-10-07T10:51:55.763Z,39.81
2022-10-07T10:54:38.035Z,39.23
2022-10-07T10:57:13.008Z,38.46
2022-10-07T11:00:13.224Z,39.16
2022-10-07T11:02:40.639Z,37.03
2022-10-07T11:05:24.132Z,37.53
2022-10-07T11:07:54.376Z,37.46
2022-10-07T11:10:53.560Z,38.97
2022-10-07T11:13:30.670Z,36.16
2022-10-07T11:16:05.004Z,35.48
2022-10-07T11:18:50.608Z,37.58
2022-10-07T11:21:26.156Z,36.68
2022-10-07T11:24:10.388Z,37.39
2022-10-07T11:26:39.588Z,36.46
2022-10-07T11:29:18.518Z,36.05
2022-10-07T11:31:54.952Z,36.69
2022-10-07T11:34:40.559Z,37.08
2022-10-07T11:37:20.463Z,36.85
2022-10-07T11:39:47.684Z,36.19
2022-10-07T11:42:21.884Z,35.20
2022-10-07T11:45:10.405Z,36.02
2022-10-07T11:47:42.892Z,35.57
2022-10-07T11:50:31.333Z,37.21
2022-10-07T11:53:08.082Z,35.73
2022-10-07T11:55:44.219Z,35.77
2022-10-07T11:58:25.416Z,36.48
2022-10-07T12:01:28.768Z,36.77
2022-10-07T12:04:27.659Z,35.63
2022-10-07T12:07:31.777Z,36.51
2022-10-07T12:10:04.976Z,35.12
2022-10-07T12:12:47.262Z,35.98
2022-10-07T12:15:29.535Z,36.00
2022-10-07T12:18:04.516Z,34.52
2022-10-07T12:20:44.972Z,33.86
2022-10-07T12:23:19.569Z,34.70
2022-10-07T12:25:48.313Z,34.43
2022-10-07T12:31:05.135Z,33.84
2022-10-07T12:33:43.300Z,32.09
2022-10-07T12:36:18.799Z,33.52
2022-10-07T12:39:08.059Z,33.88
2022-10-07T12:41:39.835Z,32.72
2022-10-07T12:44:23.973Z,34.53
2022-10-07T12:46:54.014Z,32.90
2022-10-07T12:49:30.833Z,33.55
2022-10-07T12:52:04.086Z,34.55
2022-10-07T12:54:39.263Z,34.42
2022-10-07T12:57:13.073Z,33.48
2022-10-07T12:59:58.119Z,32.74
2022-10-07T13:03:03.513Z,33.96
2022-10-07T13:05:39.067Z,32.33
2022-10-07T13:08:18.593Z,33.15
2022-10-07T13:10:57.571Z,31.38
2022-10-07T13:13:34.277Z,31.94
2022-10-07T13:16:13.917Z,31.94
2022-10-07T13:18:55.241Z,31.98
2022-10-07T13:21:49.867Z,31.66
2022-10-07T13:24:21.569Z,31.68
2022-10-07T13:26:48.177Z,31.45
2022-10-07T13:29:33.335Z,31.76
2022-10-07T13:32:05.678Z,31.19
2022-10-07T13:34:33.262Z,31.00
2022-10-07T13:37:00.085Z,31.32
2022-10-07T13:39:26.834Z,31.13
2022-10-07T13:42:00.003Z,32.33
2022-10-07T13:44:29.954Z,32.00
2022-10-07T13:47:00.209Z,32.11
2022-10-07T13:49:30.718Z,32.36
2022-10-07T13:52:02.338Z,32.37
2022-10-07T13:54:32.847Z,32.56
2022-10-07T13:57:02.504Z,33.43
2022-10-07T13:59:29.615Z,32.35
2022-10-07T14:02:01.349Z,32.08
2022-10-07T14:04:33.626Z,32.39
2022-10-07T14:07:19.504Z,31.88
2022-10-07T14:09:58.024Z,33.55
2022-10-07T14:12:49.062Z,34.06
2022-10-07T14:15:21.305Z,33.48
2022-10-07T14:17:51.061Z,32.75
2022-10-07T14:20:23.580Z,32.83
2022-10-07T14:22:56.153Z,32.73
2022-10-07T14:25:32.029Z,32.79
2022-10-07T14:27:58.959Z,32.28
2022-10-07T14:30:26.018Z,32.38
2022-10-07T14:33:30.146Z,33.46
2022-10-07T14:36:12.077Z,33.55
2022-10-07T14:38:39.681Z,31.83
2022-10-07T14:41:06.225Z,32.11
2022-10-07T14:43:34.191Z,32.26
2022-10-07T14:46:27.739Z,32.55
2022-10-07T14:48:55.218Z,32.50
2022-10-07T14:51:27.619Z,32.24
2022-10-07T14:54:01.014Z,32.85
2022-10-07T14:56:31.069Z,32.54
2022-10-07T14:58:57.827Z,32.28
2022-10-07T15:01:26.765Z,31.91
2022-10-07T15:03:53.328Z,32.76
2022-10-07T15:06:20.718Z,32.65
2022-10-07T15:08:48.615Z,33.01
2022-10-07T15:11:20.054Z,32.35
2022-10-07T15:13:47.946Z,32.79
2022-10-07T15:16:21.259Z,32.71
2022-10-07T15:18:52.177Z,32.25
2022-10-07T15:21:20.306Z,32.33
2022-10-07T15:23:51.824Z,33.17
2022-10-07T15:26:19.249Z,32.25
2022-10-07T15:28:50.368Z,33.17
2022-10-07T15:31:17.752Z,32.68
2022-10-07T15:33:44.645Z,31.88
2022-10-07T15:36:13.206Z,32.06
2022-10-07T15:38:40.657Z,32.59
2022-10-07T15:41:07.821Z,32.65
2022-10-07T15:43:35.383Z,32.47
2022-10-07T15:46:02.957Z,32.23
2022-10-07T15:48:29.506Z,32.44
2022-10-07T15:50:57.654Z,32.23
2022-10-07T15:53:25.421Z,32.58
2022-10-07T15:56:00.661Z,32.66
2022-10-07T15:58:30.458Z,32.59
2022-10-07T16:01:07.493Z,33.07
2022-10-07T16:03:40.416Z,32.19
2022-10-07T16:06:18.923Z,33.15
2022-10-07T16:08:45.730Z,32.07
2022-10-07T16:11:13.124Z,32.39
2022-10-07T16:13:44.770Z,32.59
2022-10-07T16:16:14.797Z,32.25
2022-10-07T16:18:43.705Z,32.15
2022-10-07T16:21:40.538Z,32.47
2022-10-07T16:24:14.289Z,32.93
2022-10-07T16:26:41.774Z,32.86
2022-10-07T16:29:34.875Z,33.36
2022-10-07T16:32:02.423Z,32.88
2022-10-07T16:34:29.519Z,33.55
2022-10-07T16:36:57.833Z,33.97
2022-10-07T16:39:24.451Z,34.44
2022-10-07T16:41:52.538Z,35.22
2022-10-07T16:44:20.296Z,35.19
2022-10-07T16:46:47.858Z,35.50
2022-10-07T16:49:17.313Z,35.45
2022-10-07T16:51:44.655Z,35.77
2022-10-07T16:54:14.095Z,36.25
2022-10-07T16:56:46.176Z,36.36
2022-10-07T16:59:17.458Z,36.85
2022-10-07T17:01:49.356Z,37.06
2022-10-07T17:04:16.088Z,37.32
2022-10-07T17:06:43.933Z,37.57
2022-10-07T17:09:10.412Z,37.95
2022-10-07T17:11:37.104Z,36.07
2022-10-07T17:14:07.491Z,38.38
2022-10-07T17:16:40.070Z,38.57
2022-10-07T17:19:07.227Z,39.29
2022-10-07T17:21:38.040Z,39.34
2022-10-07T17:24:05.862Z,39.65
2022-10-07T17:26:32.424Z,39.74
2022-10-07T17:29:02.250Z,40.09
2022-10-07T17:31:30.811Z,40.33
2022-10-07T17:33:58.665Z,40.23
2022-10-07T17:36:26.850Z,40.31
2022-10-07T17:38:54.314Z,40.65
2022-10-07T17:41:22.217Z,40.99
2022-10-07T17:43:51.301Z,40.99
2022-10-07T17:46:19.947Z,40.86
2022-10-07T17:48:52.302Z,40.71
2022-10-07T17:51:20.529Z,41.62
2022-10-07T17:53:48.507Z,41.34
2022-10-07T17:56:15.871Z,41.48
2022-10-07T17:58:45.933Z,41.17
2022-10-07T18:01:19.642Z,40.87
2022-10-07T18:03:51.613Z,41.11
2022-10-07T18:06:18.715Z,41.41
2022-10-07T18:08:45.212Z,42.09
2022-10-07T18:11:11.698Z,39.61
2022-10-07T18:13:56.597Z,41.82
2022-10-07T18:16:23.821Z,41.79
2022-10-07T18:18:55.429Z,41.60
2022-10-07T18:21:23.950Z,41.90
2022-10-07T18:23:54.468Z,42.40
2022-10-07T18:26:20.944Z,42.04
2022-10-07T18:28:47.668Z,42.58
2022-10-07T18:31:17.042Z,42.70
2022-10-07T18:33:44.911Z,42.71
2022-10-07T18:36:18.693Z,42.33
2022-10-07T18:38:46.042Z,43.34
2022-10-07T18:41:17.392Z,42.50
2022-10-07T18:43:45.609Z,43.31
2022-10-07T18:46:15.110Z,43.60
2022-10-07T18:48:43.527Z,44.28
2022-10-07T18:51:11.591Z,44.52
2022-10-07T18:53:40.288Z,44.65
2022-10-07T18:56:10.539Z,44.54
2022-10-07T18:58:43.156Z,44.15
2022-10-07T19:01:11.589Z,45.06
2022-10-07T19:03:38.458Z,45.68
2022-10-07T19:06:11.184Z,45.16
2022-10-07T19:08:38.007Z,45.38
2022-10-07T19:11:06.463Z,45.40
2022-10-07T19:13:50.553Z,45.97
2022-10-07T19:16:34.648Z,45.18
2022-10-07T19:19:04.933Z,45.92
2022-10-07T19:21:32.338Z,45.87
2022-10-07T19:24:01.430Z,45.96
2022-10-07T19:26:32.453Z,45.86
2022-10-07T19:28:59.524Z,45.66
2022-10-07T19:31:29.275Z,45.94
2022-10-07T19:34:02.398Z,45.92
2022-10-07T19:36:34.055Z,45.65
2022-10-07T19:39:01.860Z,46.48
2022-10-07T19:41:30.784Z,46.21
2022-10-07T19:43:57.999Z,46.48
2022-10-07T19:46:26.704Z,46.36
2022-10-07T19:48:55.455Z,46.43
2022-10-07T19:51:21.974Z,46.52
2022-10-07T19:53:48.494Z,46.18
2022-10-07T19:56:16.703Z,46.33
2022-10-07T19:58:47.994Z,46.69
2022-10-07T20:01:17.596Z,46.32
2022-10-07T20:03:44.549Z,46.50
2022-10-07T20:06:11.353Z,46.54
2022-10-07T20:08:40.369Z,46.64
2022-10-07T20:11:08.129Z,46.69
2022-10-07T20:13:35.934Z,46.13
2022-10-07T20:16:14.784Z,46.19
2022-10-07T20:18:41.557Z,46.62
2022-10-07T20:21:11.240Z,43.93
2022-10-07T20:23:40.458Z,46.47
2022-10-07T20:26:08.676Z,46.49
2022-10-07T20:28:37.722Z,46.16
2022-10-07T20:31:06.382Z,46.52
2022-10-07T20:33:40.917Z,45.88
2022-10-07T20:36:08.483Z,46.42
2022-10-07T22:16:15.454Z,46.01
2022-10-07T22:18:49.383Z,46.23
2022-10-07T22:21:21.655Z,47.29
2022-10-07T22:23:56.175Z,47.09
2022-10-07T22:26:25.724Z,46.82
2022-10-07T22:28:52.500Z,47.16
2022-10-07T22:31:19.306Z,47.42
2022-10-07T22:33:51.859Z,46.81
2022-10-07T22:36:19.276Z,47.31
2022-10-07T22:38:45.919Z,48.65
2022-10-07T22:41:14.143Z,45.21
2022-10-07T22:43:44.255Z,47.35
2022-10-07T22:46:26.907Z,46.85
2022-10-07T22:48:58.163Z,48.59
2022-10-07T22:51:28.439Z,47.77
2022-10-07T22:53:56.852Z,48.58
2022-10-07T22:56:24.910Z,48.37
2022-10-07T22:59:01.611Z,48.44
2022-10-07T23:01:31.203Z,47.99
2022-10-07T23:04:03.189Z,48.44
2022-10-07T23:06:35.183Z,48.67
2022-10-07T23:09:03.804Z,49.92
2022-10-07T23:11:30.918Z,51.48
2022-10-07T23:13:57.508Z,51.05
2022-10-07T23:16:28.002Z,50.67
2022-10-07T23:18:54.761Z,49.61
2022-10-07T23:21:25.536Z,47.02
2022-10-07T23:24:01.679Z,51.32
2022-10-07T23:26:33.378Z,48.77
2022-10-07T23:29:01.032Z,48.19
2022-10-07T23:31:29.259Z,48.30
2022-10-07T23:33:57.109Z,49.56
2022-10-07T23:36:24.963Z,49.16
2022-10-07T23:38:52.464Z,48.60
2022-10-07T23:41:21.917Z,48.91
2022-10-07T23:43:50.578Z,48.90
2022-10-07T23:46:19.075Z,49.97
2022-10-07T23:48:45.668Z,48.87
2022-10-07T23:51:13.829Z,50.37
2022-10-07T23:53:40.578Z,48.92
2022-10-07T23:56:07.649Z,49.06
2022-10-07T23:58:34.652Z,49.21
